createdAt,value
2022-11-27T00:01:16.900Z,101928.81
2022-11-27T00:03:46.994Z,101921.78
2022-11-27T00:06:16.883Z,101907.78
2022-11-27T00:08:46.561Z,101930.56
2022-11-27T00:11:15.962Z,101920.03
2022-11-27T00:13:43.876Z,101911.28
2022-11-27T00:16:18.142Z,101913.91
2022-11-27T00:18:46.679Z,101910.41
2022-11-27T00:21:17.606Z,101902.53
2022-11-27T00:23:46.003Z,101916.53
2022-11-27T00:26:15.890Z,101905.16
2022-11-27T00:28:43.794Z,101899.88
2022-11-27T00:31:17.641Z,101908.66
2022-11-27T00:33:55.225Z,101911.31
2022-11-27T00:36:25.838Z,101915.66
2022-11-27T00:38:54.356Z,101930.56
2022-11-27T00:41:27.455Z,101925.31
2022-11-27T00:43:55.922Z,101916.56
2022-11-27T00:46:29.034Z,101927.94
2022-11-27T00:48:57.546Z,101931.44
2022-11-27T00:51:26.837Z,101917.41
2022-11-27T00:53:55.527Z,101926.16
2022-11-27T00:56:25.451Z,101924.44
2022-11-27T00:58:54.350Z,101927.94
2022-11-27T01:01:26.100Z,101927.94
2022-11-27T01:03:54.488Z,101929.69
2022-11-27T01:06:22.551Z,101920.94
2022-11-27T01:08:50.757Z,101909.56
2022-11-27T01:11:20.577Z,101906.03
2022-11-27T01:13:49.545Z,101903.41
2022-11-27T01:16:20.469Z,101896.38
2022-11-27T01:18:51.546Z,101897.28
2022-11-27T01:21:20.987Z,101893.75
2022-11-27T01:23:50.303Z,101890.25
2022-11-27T01:26:20.011Z,101891.13
2022-11-27T01:28:48.485Z,101891.13
2022-11-27T01:31:21.117Z,101889.38
2022-11-27T01:33:54.825Z,101876.25
2022-11-27T01:36:23.043Z,101878.88
2022-11-27T01:38:51.354Z,101894.63
2022-11-27T01:41:23.257Z,101885.88
2022-11-27T01:43:56.278Z,101885.00
2022-11-27T01:46:34.955Z,101899.00
2022-11-27T01:49:25.962Z,101883.25
2022-11-27T01:52:04.499Z,101872.72
2022-11-27T01:54:35.722Z,101881.47
2022-11-27T01:57:08.063Z,101874.47
2022-11-27T01:59:37.822Z,101864.84
2022-11-27T02:02:05.923Z,101870.06
2022-11-27T02:04:36.395Z,101871.84
2022-11-27T02:07:04.665Z,101849.97
2022-11-27T02:09:45.204Z,101851.72
2022-11-27T02:12:25.125Z,101855.22
2022-11-27T02:15:04.004Z,101848.22
2022-11-27T02:17:38.755Z,101849.09
2022-11-27T02:20:21.382Z,101845.63
2022-11-27T02:23:10.460Z,101829.84
2022-11-27T02:25:49.572Z,101828.09
2022-11-27T02:28:38.641Z,101825.44
2022-11-27T02:31:15.851Z,101821.09
2022-11-27T02:33:47.576Z,101814.97
2022-11-27T02:36:20.661Z,101808.81
2022-11-27T02:38:55.430Z,101817.59
2022-11-27T02:41:30.144Z,101808.84
2022-11-27T02:43:59.860Z,101804.44
2022-11-27T02:46:30.491Z,101806.19
2022-11-27T02:49:03.618Z,101807.94
2022-11-27T02:51:39.317Z,101805.31
2022-11-27T02:54:15.281Z,101790.44
2022-11-27T02:56:47.528Z,101788.69
2022-11-27T02:59:19.009Z,101784.31
2022-11-27T03:01:53.705Z,101769.41
2022-11-27T03:04:27.735Z,101762.41
2022-11-27T03:07:00.272Z,101765.88
2022-11-27T03:09:40.062Z,101761.50
2022-11-27T03:12:11.090Z,101761.50
2022-11-27T03:14:40.539Z,101764.13
2022-11-27T03:17:22.016Z,101759.75
2022-11-27T03:19:54.669Z,101761.50
2022-11-27T03:22:23.007Z,101749.22
2022-11-27T03:24:51.178Z,101758.88
2022-11-27T03:27:27.879Z,101765.00
2022-11-27T03:29:59.557Z,101772.88
2022-11-27T03:32:31.593Z,101753.59
2022-11-27T03:34:59.985Z,101751.84
2022-11-27T03:37:28.857Z,101769.38
2022-11-27T03:39:56.906Z,101765.00
2022-11-27T03:42:30.444Z,101781.63
2022-11-27T03:45:09.132Z,101780.75
2022-11-27T03:47:47.509Z,101792.16
2022-11-27T03:50:29.025Z,101783.38
2022-11-27T03:53:11.889Z,101788.66
2022-11-27T03:55:50.139Z,101796.53
2022-11-27T03:58:24.911Z,101805.28
2022-11-27T04:00:54.064Z,101805.28
2022-11-27T04:03:28.821Z,101812.31
2022-11-27T04:05:57.202Z,101836.84
2022-11-27T04:08:25.483Z,101844.72
2022-11-27T04:10:53.717Z,101858.72
2022-11-27T04:13:21.743Z,101871.00
2022-11-27T04:15:49.905Z,101885.91
2022-11-27T04:18:19.415Z,101913.06
2022-11-27T04:20:50.293Z,101923.53
2022-11-27T04:23:22.446Z,101940.22
2022-11-27T04:25:52.574Z,101948.97
2022-11-27T04:28:20.792Z,101971.75
2022-11-27T04:30:53.321Z,101975.25
2022-11-27T04:33:21.559Z,101991.03
2022-11-27T04:35:50.979Z,101988.41
2022-11-27T04:38:20.298Z,102008.56
2022-11-27T04:40:49.425Z,102003.31
2022-11-27T04:43:19.881Z,102021.72
2022-11-27T04:45:48.931Z,102020.81
2022-11-27T04:48:16.935Z,102035.72
2022-11-27T04:50:44.825Z,102049.72
2022-11-27T04:53:14.295Z,102045.34
2022-11-27T04:55:45.342Z,102042.72
2022-11-27T04:58:13.508Z,102053.22
2022-11-27T05:00:41.795Z,102061.97
2022-11-27T05:03:09.909Z,102040.94
2022-11-27T05:05:38.384Z,102069.00
2022-11-27T05:08:06.471Z,102066.34
2022-11-27T05:10:35.942Z,102078.66
2022-11-27T05:13:03.798Z,102070.75
2022-11-27T05:15:31.908Z,102054.09
2022-11-27T05:17:59.829Z,102053.22
2022-11-27T05:20:27.676Z,102037.44
2022-11-27T05:22:55.627Z,102042.72
2022-11-27T05:25:23.942Z,102043.59
2022-11-27T05:27:55.489Z,102037.47
2022-11-27T05:30:25.942Z,102041.81
2022-11-27T05:32:54.000Z,102026.91
2022-11-27T05:35:21.909Z,102019.91
2022-11-27T05:37:49.849Z,102021.66
2022-11-27T05:40:17.782Z,102024.31
2022-11-27T05:42:45.581Z,102026.94
2022-11-27T05:45:15.694Z,102025.19
2022-11-27T05:47:43.511Z,102022.56
2022-11-27T05:50:12.613Z,102028.69
2022-11-27T05:52:40.883Z,102016.41
2022-11-27T05:55:09.598Z,102026.06
2022-11-27T05:57:37.648Z,102036.56
2022-11-27T06:00:07.374Z,102021.69
2022-11-27T06:02:42.053Z,102037.44
2022-11-27T06:05:23.226Z,102027.81
2022-11-27T06:07:51.376Z,102040.97
2022-11-27T06:10:21.538Z,102035.69
2022-11-27T06:12:49.572Z,102039.19
2022-11-27T06:15:17.867Z,102034.81
2022-11-27T06:17:49.493Z,102049.69
2022-11-27T06:20:17.565Z,102035.69
2022-11-27T06:22:56.724Z,102033.03
2022-11-27T06:25:25.282Z,102032.19
2022-11-27T06:27:53.841Z,102035.69
2022-11-27T06:30:24.283Z,102027.81
2022-11-27T06:32:53.642Z,102026.03
2022-11-27T06:35:21.640Z,102035.66
2022-11-27T06:37:49.582Z,102030.41
2022-11-27T06:40:17.718Z,102027.78
2022-11-27T06:42:45.715Z,102026.91
2022-11-27T06:45:17.258Z,102025.16
2022-11-27T06:47:47.368Z,102012.91
2022-11-27T06:50:16.840Z,102016.41
2022-11-27T06:52:45.239Z,102019.91
2022-11-27T06:55:14.132Z,102016.38
2022-11-27T06:57:42.016Z,102013.75
2022-11-27T07:00:12.680Z,102004.13
2022-11-27T07:02:41.875Z,102003.25
2022-11-27T07:05:17.065Z,102005.00
2022-11-27T07:07:44.974Z,101995.38
2022-11-27T07:10:17.729Z,102003.25
2022-11-27T07:12:46.586Z,102010.28
2022-11-27T07:15:16.578Z,102026.94
2022-11-27T07:17:45.843Z,102025.19
2022-11-27T07:20:17.221Z,102024.28
2022-11-27T07:22:52.230Z,102030.47
2022-11-27T07:25:24.085Z,102033.94
2022-11-27T07:27:52.255Z,102027.81
2022-11-27T07:30:20.998Z,102024.31
2022-11-27T07:32:50.139Z,102039.22
2022-11-27T07:35:27.114Z,102021.69
2022-11-27T07:37:56.820Z,102019.94
2022-11-27T07:40:30.558Z,102003.28
2022-11-27T07:43:11.567Z,101988.38
2022-11-27T07:45:39.549Z,101968.25
2022-11-27T07:48:18.818Z,101984.03
2022-11-27T07:50:48.561Z,101971.72
2022-11-27T07:53:20.372Z,101967.34
2022-11-27T07:55:49.921Z,101972.63
2022-11-27T07:58:25.267Z,101973.50
2022-11-27T08:00:53.259Z,101977.88
2022-11-27T08:03:24.298Z,101974.38
2022-11-27T08:05:52.522Z,101970.88
2022-11-27T08:08:24.388Z,101962.09
2022-11-27T08:10:53.453Z,101960.34
2022-11-27T08:13:37.568Z,101946.31
2022-11-27T08:16:06.578Z,101917.41
2022-11-27T08:18:39.190Z,101948.94
2022-11-27T08:21:13.516Z,101942.81
2022-11-27T08:23:43.072Z,101920.03
2022-11-27T08:26:14.476Z,101922.66
2022-11-27T08:28:43.077Z,101913.03
2022-11-27T08:31:35.861Z,101941.06
2022-11-27T08:34:04.371Z,101914.78
2022-11-27T08:36:32.865Z,101934.03
2022-11-27T08:39:02.606Z,101893.75
2022-11-27T08:41:30.964Z,101941.94
2022-11-27T08:43:59.237Z,101923.53
2022-11-27T08:46:32.300Z,101945.44
2022-11-27T08:49:01.089Z,101946.31
2022-11-27T08:51:29.736Z,101934.03
2022-11-27T08:54:06.457Z,101918.25
2022-11-27T08:56:39.441Z,101923.53
2022-11-27T08:59:09.655Z,101932.28
2022-11-27T09:01:37.707Z,101938.44
2022-11-27T09:04:06.921Z,101944.56
2022-11-27T09:06:36.329Z,101930.53
2022-11-27T09:09:07.314Z,101930.53
2022-11-27T09:11:36.422Z,101915.63
2022-11-27T09:14:06.144Z,101928.78
2022-11-27T09:16:41.752Z,101927.91
2022-11-27T09:19:12.801Z,101930.53
2022-11-27T09:21:41.480Z,101927.03
2022-11-27T09:24:11.941Z,101927.03
2022-11-27T09:26:44.864Z,101927.03
2022-11-27T09:29:14.967Z,101932.28
2022-11-27T09:31:43.882Z,101936.66
2022-11-27T09:34:12.899Z,101946.31
2022-11-27T09:36:42.246Z,101941.03
2022-11-27T09:39:28.658Z,101955.09
2022-11-27T09:41:59.213Z,101956.84
2022-11-27T09:44:35.486Z,101965.59
2022-11-27T09:47:14.931Z,101985.78
2022-11-27T09:50:20.006Z,101978.75
2022-11-27T09:52:57.835Z,101977.00
2022-11-27T09:55:34.376Z,101990.16
2022-11-27T09:58:06.904Z,101977.03
2022-11-27T10:00:38.201Z,101969.13
2022-11-27T10:03:09.570Z,101955.97
2022-11-27T10:06:04.319Z,101953.34
2022-11-27T10:08:51.528Z,101931.44
2022-11-27T10:11:35.323Z,101928.81
2022-11-27T10:14:33.890Z,101932.31
2022-11-27T10:17:09.748Z,101913.91
2022-11-27T10:20:07.815Z,101896.38
2022-11-27T10:22:47.202Z,101893.75
2022-11-27T10:25:20.878Z,101879.72
2022-11-27T10:28:03.725Z,101865.72
2022-11-27T10:30:46.969Z,101870.09
2022-11-27T10:33:32.679Z,101859.56
2022-11-27T10:36:14.884Z,101837.69
2022-11-27T10:38:45.407Z,101847.31
2022-11-27T10:41:48.864Z,101851.69
2022-11-27T10:44:30.936Z,101831.53
2022-11-27T10:47:03.914Z,101823.66
2022-11-27T10:49:32.760Z,101810.50
2022-11-27T10:52:01.670Z,101780.69
2022-11-27T10:54:36.923Z,101789.41
2022-11-27T11:00:35.006Z,101763.97
2022-11-27T11:03:18.325Z,101742.91
2022-11-27T11:08:49.429Z,101733.31
2022-11-27T11:11:40.344Z,101730.69
2022-11-27T11:14:23.834Z,101717.50
2022-11-27T11:16:54.137Z,101701.75
2022-11-27T11:19:30.252Z,101696.47
2022-11-27T11:22:14.838Z,101689.47
2022-11-27T11:24:47.955Z,101680.69
2022-11-27T11:27:21.471Z,101663.19
2022-11-27T11:30:26.983Z,101671.91
2022-11-27T11:33:03.806Z,101651.78
2022-11-27T11:35:40.935Z,101649.13
2022-11-27T11:38:30.079Z,101650.00
2022-11-27T11:41:18.937Z,101638.56
2022-11-27T11:44:19.630Z,101631.53
2022-11-27T11:46:56.098Z,101628.06
2022-11-27T11:50:41.352Z,101624.50
2022-11-27T11:53:29.063Z,101613.09
2022-11-27T11:56:18.871Z,101603.47
2022-11-27T11:58:59.477Z,101594.75
2022-11-27T12:01:54.742Z,101592.91
2022-11-27T12:04:57.462Z,101599.91
2022-11-27T12:07:50.480Z,101598.94
2022-11-27T12:10:30.891Z,101585.78
2022-11-27T12:13:33.034Z,101588.41
2022-11-27T12:16:14.606Z,101594.53
2022-11-27T12:19:04.330Z,101581.34
2022-11-27T12:21:51.010Z,101577.88
2022-11-27T12:24:49.705Z,101570.94
2022-11-27T12:27:37.911Z,101568.31
2022-11-27T12:30:14.365Z,101565.66
2022-11-27T12:33:14.367Z,101557.78
2022-11-27T12:35:45.882Z,101556.84
2022-11-27T12:38:38.083Z,101560.34
2022-11-27T12:41:29.616Z,101545.50
2022-11-27T12:44:01.016Z,101537.56
2022-11-27T12:46:37.714Z,101541.06
2022-11-27T12:49:16.740Z,101535.81
2022-11-27T12:51:48.854Z,101530.47
2022-11-27T12:54:31.047Z,101523.47
2022-11-27T12:57:02.724Z,101512.97
2022-11-27T12:59:43.933Z,101502.47
2022-11-27T13:02:30.239Z,101491.84
2022-11-27T13:05:03.773Z,101478.88
2022-11-27T13:07:40.322Z,101480.63
2022-11-27T13:10:21.801Z,101473.63
2022-11-27T13:12:56.263Z,101458.72
2022-11-27T13:15:36.201Z,101451.75
2022-11-27T13:18:15.063Z,101444.72
2022-11-27T13:20:48.224Z,101441.19
2022-11-27T13:23:21.569Z,101437.66
2022-11-27T13:25:54.410Z,101417.56
2022-11-27T13:28:28.328Z,101415.78
2022-11-27T13:31:02.738Z,101419.28
2022-11-27T13:33:42.809Z,101424.53
2022-11-27T13:36:22.275Z,101411.34
2022-11-27T13:39:00.203Z,101424.56
2022-11-27T13:41:35.439Z,101411.38
2022-11-27T13:44:07.673Z,101411.41
2022-11-27T13:46:48.559Z,101407.03
2022-11-27T13:49:27.399Z,101407.91
2022-11-27T13:52:07.241Z,101399.13
2022-11-27T13:54:35.274Z,101389.63
2022-11-27T13:57:14.840Z,101379.06
2022-11-27T13:59:43.281Z,101385.16
2022-11-27T14:02:13.005Z,101361.66
2022-11-27T14:04:54.488Z,101387.78
2022-11-27T14:07:25.463Z,101372.97
2022-11-27T14:09:56.292Z,101359.03
2022-11-27T14:12:26.732Z,101366.81
2022-11-27T14:15:05.023Z,101362.47
2022-11-27T14:17:52.498Z,101345.88
2022-11-27T14:20:25.136Z,101346.69
2022-11-27T14:23:11.135Z,101342.34
2022-11-27T14:25:42.266Z,101332.69
2022-11-27T14:28:16.715Z,101329.22
2022-11-27T14:30:49.012Z,101328.34
2022-11-27T14:33:24.014Z,101313.56
2022-11-27T14:35:54.352Z,101317.00
2022-11-27T14:38:22.912Z,101313.59
2022-11-27T14:40:53.326Z,101303.97
2022-11-27T14:43:25.928Z,101297.88
2022-11-27T14:45:55.907Z,101301.31
2022-11-27T14:48:42.104Z,101283.06
2022-11-27T14:51:15.154Z,101275.16
2022-11-27T14:54:04.285Z,101290.88
2022-11-27T14:56:36.185Z,101273.34
2022-11-27T14:59:04.837Z,101258.41
2022-11-27T15:01:34.627Z,101256.72
2022-11-27T15:04:06.039Z,101258.47
2022-11-27T15:06:37.676Z,101249.69
2022-11-27T15:09:30.724Z,101253.22
2022-11-27T15:11:56.637Z,101253.22
2022-11-27T15:14:26.624Z,101248.00
2022-11-27T15:16:55.186Z,101242.84
2022-11-27T15:19:30.455Z,101240.09
2022-11-27T15:21:59.910Z,101242.72
2022-11-27T15:24:35.241Z,101200.00
2022-11-27T15:27:25.143Z,101229.56
2022-11-27T15:30:11.715Z,101222.53
2022-11-27T15:32:51.484Z,101217.25
2022-11-27T15:35:28.053Z,101204.09
2022-11-27T15:37:57.813Z,101196.19
2022-11-27T15:40:31.784Z,101193.53
2022-11-27T15:43:01.082Z,101193.53
2022-11-27T15:45:31.890Z,101147.94
2022-11-27T15:48:01.319Z,101149.66
2022-11-27T15:50:31.740Z,101175.06
2022-11-27T15:53:01.407Z,101161.97
2022-11-27T15:55:30.717Z,101158.44
2022-11-27T15:57:59.767Z,101166.22
2022-11-27T16:00:27.801Z,101175.84
2022-11-27T16:02:56.955Z,101174.06
2022-11-27T16:05:24.989Z,101172.25
2022-11-27T16:07:55.536Z,101187.16
2022-11-27T16:10:23.751Z,101181.06
2022-11-27T16:12:55.653Z,101183.72
2022-11-27T16:15:26.684Z,101188.09
2022-11-27T16:17:57.933Z,101181.03
2022-11-27T16:20:26.378Z,101193.31
2022-11-27T16:22:55.882Z,101178.44
2022-11-27T16:25:25.225Z,101172.38
2022-11-27T16:27:56.690Z,101171.41
2022-11-27T16:30:27.325Z,101180.19
2022-11-27T16:32:55.583Z,101167.09
2022-11-27T16:35:23.517Z,101160.03
2022-11-27T16:37:51.723Z,101165.31
2022-11-27T16:40:24.210Z,101154.81
2022-11-27T16:42:52.282Z,101152.16
2022-11-27T16:45:20.462Z,101130.25
2022-11-27T16:47:48.291Z,101134.59
2022-11-27T16:50:16.271Z,101126.69
2022-11-27T16:52:44.770Z,101137.22
2022-11-27T16:55:13.482Z,101118.84
2022-11-27T16:57:43.850Z,101124.97
2022-11-27T17:00:12.208Z,101119.69
2022-11-27T17:02:40.704Z,101115.34
2022-11-27T17:05:09.334Z,101125.78
2022-11-27T17:07:37.385Z,101124.00
2022-11-27T17:10:05.903Z,101127.59
2022-11-27T17:12:34.365Z,101118.78
2022-11-27T17:15:03.571Z,101118.78
2022-11-27T17:17:36.826Z,101115.28
2022-11-27T17:20:10.006Z,101115.22
2022-11-27T17:22:39.057Z,101104.75
2022-11-27T17:25:14.391Z,101106.50
2022-11-27T17:27:42.645Z,101096.00
2022-11-27T17:30:12.622Z,101097.66
2022-11-27T17:32:40.472Z,101098.56
2022-11-27T17:35:10.559Z,101095.94
2022-11-27T17:37:43.606Z,101096.81
2022-11-27T17:40:12.591Z,101088.03
2022-11-27T17:42:44.636Z,101090.59
2022-11-27T17:45:14.138Z,101087.94
2022-11-27T17:47:41.977Z,101087.94
2022-11-27T17:50:11.329Z,101086.19
2022-11-27T17:52:41.254Z,101087.88
2022-11-27T17:55:09.589Z,101085.31
2022-11-27T17:57:38.497Z,101083.56
2022-11-27T18:00:08.939Z,101087.91
2022-11-27T18:02:38.163Z,101086.16
2022-11-27T18:05:09.082Z,101092.22
2022-11-27T18:07:39.158Z,101089.56
2022-11-27T18:10:08.647Z,101093.94
2022-11-27T18:12:37.943Z,101086.97
2022-11-27T18:15:10.008Z,101092.16
2022-11-27T18:17:42.366Z,101078.28
2022-11-27T18:20:10.695Z,101085.25
2022-11-27T18:22:38.777Z,101081.72
2022-11-27T18:25:07.319Z,101080.78
2022-11-27T18:27:35.539Z,101076.50
2022-11-27T18:30:05.202Z,101086.97
2022-11-27T18:32:35.620Z,101079.97
2022-11-27T18:35:15.666Z,101065.97
2022-11-27T18:37:43.512Z,101070.34
2022-11-27T18:40:14.066Z,101065.09
2022-11-27T18:42:42.005Z,101065.06
2022-11-27T18:45:31.938Z,101057.16
2022-11-27T18:47:59.351Z,101052.91
2022-11-27T18:50:31.734Z,101048.50
2022-11-27T18:52:59.561Z,101052.91
2022-11-27T18:55:27.977Z,101034.47
2022-11-27T18:57:55.969Z,101021.28
2022-11-27T19:00:30.112Z,101021.34
2022-11-27T19:02:58.140Z,101016.97
2022-11-27T19:05:27.342Z,101009.16
2022-11-27T19:08:08.974Z,101007.38
2022-11-27T19:10:37.073Z,100998.53
2022-11-27T19:13:05.091Z,101001.16
2022-11-27T19:15:37.056Z,100990.66
2022-11-27T19:18:05.297Z,100990.66
2022-11-27T19:20:38.020Z,100979.28
2022-11-27T19:23:32.049Z,100987.13
2022-11-27T19:26:06.566Z,100973.22
2022-11-27T19:28:34.527Z,100970.50
2022-11-27T19:31:05.786Z,100962.63
2022-11-27T19:33:35.053Z,100967.81
2022-11-27T19:36:05.449Z,100955.59
2022-11-27T19:38:34.913Z,100963.50
2022-11-27T19:41:04.740Z,100952.97
2022-11-27T19:43:32.708Z,100949.44
2022-11-27T19:46:01.597Z,100938.06
2022-11-27T19:48:29.449Z,100935.41
2022-11-27T19:51:02.443Z,100934.63
2022-11-27T19:53:30.388Z,100929.38
2022-11-27T19:55:59.693Z,100921.47
2022-11-27T19:58:29.748Z,100930.19
2022-11-27T20:01:06.320Z,100916.28
2022-11-27T20:03:35.925Z,100906.69
2022-11-27T20:06:06.370Z,100916.28
2022-11-27T20:08:35.213Z,100903.06
2022-11-27T20:11:07.183Z,100895.22
2022-11-27T20:13:37.292Z,100888.22
2022-11-27T20:16:08.264Z,100881.22
2022-11-27T20:18:40.457Z,100875.09
2022-11-27T20:21:11.375Z,100868.09
2022-11-27T20:23:41.298Z,100859.31
2022-11-27T20:26:14.139Z,100854.00
2022-11-27T20:28:50.693Z,100853.13
2022-11-27T20:31:25.507Z,100847.03
2022-11-27T20:33:58.840Z,100840.84
2022-11-27T20:36:30.390Z,100840.00
2022-11-27T20:39:01.268Z,100831.28
2022-11-27T20:41:30.746Z,100833.03
2022-11-27T20:44:00.366Z,100825.13
2022-11-27T20:46:29.463Z,100826.03
2022-11-27T20:48:58.678Z,100825.97
2022-11-27T20:51:30.249Z,100808.63
2022-11-27T20:53:59.551Z,100811.09
2022-11-27T20:56:28.598Z,100813.84
2022-11-27T20:58:58.718Z,100807.59
2022-11-27T21:01:29.750Z,100800.56
2022-11-27T21:04:00.380Z,100790.97
2022-11-27T21:06:31.289Z,100780.50
2022-11-27T21:09:01.261Z,100782.22
2022-11-27T21:11:32.939Z,100776.03
2022-11-27T21:14:05.145Z,100764.72
2022-11-27T21:16:35.697Z,100761.22
2022-11-27T21:19:07.322Z,100759.44
2022-11-27T21:21:35.922Z,100750.63
2022-11-27T21:24:03.823Z,100750.66
2022-11-27T21:26:31.838Z,100747.19
2022-11-27T21:28:59.770Z,100759.47
2022-11-27T21:31:34.542Z,100741.06
2022-11-27T21:34:07.112Z,100740.09
2022-11-27T21:36:37.880Z,100724.41
2022-11-27T21:39:08.382Z,100723.50
2022-11-27T21:41:37.505Z,100718.22
2022-11-27T21:44:06.698Z,100721.84
2022-11-27T21:46:36.357Z,100712.16
2022-11-27T21:49:04.347Z,100713.09
2022-11-27T21:51:32.400Z,100706.94
2022-11-27T21:54:00.899Z,100699.16
2022-11-27T21:56:32.287Z,100699.94
2022-11-27T21:59:01.209Z,100700.81
2022-11-27T22:01:29.501Z,100692.91
2022-11-27T22:03:59.110Z,100702.56
2022-11-27T22:06:30.652Z,100687.72
2022-11-27T22:09:00.335Z,100684.22
2022-11-27T22:11:30.399Z,100689.44
2022-11-27T22:13:59.407Z,100679.03
2022-11-27T22:16:32.860Z,100686.84
2022-11-27T22:19:03.125Z,100672.97
2022-11-27T22:21:32.406Z,100678.28
2022-11-27T22:24:01.108Z,100673.81
2022-11-27T22:26:29.590Z,100666.88
2022-11-27T22:28:58.610Z,100670.31
2022-11-27T22:31:29.688Z,100671.16
2022-11-27T22:34:00.805Z,100675.66
2022-11-27T22:36:31.704Z,100671.22
2022-11-27T22:39:01.364Z,100665.94
2022-11-27T22:41:30.839Z,100666.88
2022-11-27T22:44:00.328Z,100659.00
2022-11-27T22:46:33.379Z,100652.09
2022-11-27T22:49:03.769Z,100655.56
2022-11-27T22:51:35.298Z,100645.91
2022-11-27T22:54:03.957Z,100649.38
2022-11-27T22:56:33.735Z,100650.31
2022-11-27T22:59:30.355Z,100648.56
2022-11-27T23:01:50.138Z,100638.88
2022-11-27T23:04:17.966Z,100641.56
2022-11-27T23:06:48.559Z,100635.47
2022-11-27T23:09:17.786Z,100626.75
2022-11-27T23:11:46.306Z,100622.31
2022-11-27T23:14:14.578Z,100623.22
2022-11-27T23:16:42.676Z,100617.03
2022-11-27T23:19:10.863Z,100622.25
2022-11-27T23:21:39.981Z,100610.00
2022-11-27T23:24:13.280Z,100608.25
2022-11-27T23:26:41.059Z,100596.03
2022-11-27T23:29:10.385Z,100590.78
2022-11-27T23:31:39.222Z,100586.41
2022-11-27T23:34:09.666Z,100579.53
2022-11-27T23:36:38.635Z,100592.53
2022-11-27T23:39:08.340Z,100574.22
2022-11-27T23:41:39.650Z,100571.56
2022-11-27T23:44:08.066Z,100565.44
2022-11-27T23:46:35.947Z,100563.72
2022-11-27T23:49:03.846Z,100561.13
2022-11-27T23:51:33.498Z,100551.50
2022-11-27T23:54:02.166Z,100554.94
2022-11-27T23:56:34.266Z,100554.06
2022-11-27T23:59:12.450Z,100540.00
